N2854L EDDS-ESNU
Flight info
| Callsign | N2854L |
|---|---|
| Flight time | 2h 24m |
| Altitude | 41000 |
| Route | DKB9B DKB N869 ANELA M726 KENIG N746 MAG M736 SALLO DCT EKRAL DCT ABAMA DCT ELTOK DCT RIKPA DCT LENSO |
| Aircraft | B736/M-SDE2E3FGHIRWXY/LB1 |
Departure
| Time | 2026-04-16 10:25 |
|---|---|
| Airport | Stuttgart Airport (EDDS) |
Arrival
| Time | 2026-04-16 12:49 |
|---|---|
| Airport | Umeå Airport (ESNU) |
| Time | Latitude | Longitude | Altitude | Speed | Heading |
|---|---|---|---|---|---|
| 2026-04-16 10:01 | 48.68943 | 9.20222 | 1292 ft | 0 kts | 163° |
| 2026-04-16 10:22 | 48.68934 | 9.20226 | 1292 ft | 4 kts | 164° |
| 2026-04-16 10:22 | 48.68887 | 9.20231 | 1289 ft | 9 kts | 206° |
| 2026-04-16 10:22 | 48.68859 | 9.20147 | 1291 ft | 9 kts | 254° |
| 2026-04-16 10:23 | 48.68842 | 9.20056 | 1293 ft | 9 kts | 253° |
| 2026-04-16 10:23 | 48.68802 | 9.19981 | 1293 ft | 11 kts | 206° |
| 2026-04-16 10:23 | 48.68716 | 9.19979 | 1290 ft | 15 kts | 174° |
| 2026-04-16 10:23 | 48.68609 | 9.20055 | 1284 ft | 20 kts | 132° |
| 2026-04-16 10:24 | 48.68622 | 9.20268 | 1277 ft | 38 kts | 74° |
| 2026-04-16 10:24 | 48.68788 | 9.21140 | 1265 ft | 131 kts | 73° |
| 2026-04-16 10:24 | 48.69112 | 9.22817 | 1362 ft | 194 kts | 74° |
| 2026-04-16 10:24 | 48.69495 | 9.24990 | 1863 ft | 230 kts | 75° |
| 2026-04-16 10:25 | 48.69918 | 9.27325 | 3054 ft | 226 kts | 74° |
| 2026-04-16 10:25 | 48.70329 | 9.29533 | 4338 ft | 214 kts | 74° |
| 2026-04-16 10:25 | 48.70757 | 9.31797 | 4991 ft | 240 kts | 73° |
| 2026-04-16 10:25 | 48.71256 | 9.34405 | 5402 ft | 272 kts | 73° |
| 2026-04-16 10:26 | 48.71783 | 9.37156 | 6483 ft | 272 kts | 73° |
| 2026-04-16 10:26 | 48.72317 | 9.39930 | 7427 ft | 277 kts | 72° |
| 2026-04-16 10:26 | 48.72864 | 9.42768 | 8278 ft | 283 kts | 72° |
| 2026-04-16 10:26 | 48.73419 | 9.45655 | 9232 ft | 287 kts | 72° |
| 2026-04-16 10:27 | 48.73981 | 9.48536 | 10157 ft | 291 kts | 70° |
| 2026-04-16 10:27 | 48.74961 | 9.51241 | 10762 ft | 302 kts | 51° |
| 2026-04-16 10:27 | 48.76362 | 9.53858 | 10987 ft | 328 kts | 49° |
| 2026-04-16 10:27 | 48.77854 | 9.56514 | 11532 ft | 340 kts | 48° |
| 2026-04-16 10:28 | 48.79404 | 9.59267 | 12295 ft | 346 kts | 48° |
| 2026-04-16 10:28 | 48.80970 | 9.62070 | 13083 ft | 350 kts | 48° |
| 2026-04-16 10:28 | 48.82552 | 9.64930 | 13868 ft | 356 kts | 48° |
| 2026-04-16 10:28 | 48.84153 | 9.67844 | 14521 ft | 363 kts | 49° |
| 2026-04-16 10:29 | 48.85775 | 9.70813 | 15233 ft | 366 kts | 49° |
| 2026-04-16 10:29 | 48.87397 | 9.73796 | 15961 ft | 368 kts | 49° |
| 2026-04-16 10:29 | 48.89035 | 9.76815 | 16644 ft | 372 kts | 49° |
| 2026-04-16 10:29 | 48.90695 | 9.79880 | 17305 ft | 377 kts | 48° |
| 2026-04-16 10:30 | 48.92368 | 9.82973 | 17970 ft | 381 kts | 48° |
| 2026-04-16 10:30 | 48.94060 | 9.86106 | 18646 ft | 385 kts | 48° |
| 2026-04-16 10:30 | 48.94614 | 9.87133 | 18833 ft | 386 kts | 48° |
| 2026-04-16 10:30 | 48.95563 | 9.88892 | 19156 ft | 388 kts | 48° |
| 2026-04-16 10:31 | 48.97280 | 9.92078 | 19747 ft | 392 kts | 48° |
| 2026-04-16 10:31 | 48.98431 | 9.94215 | 20113 ft | 394 kts | 48° |
| 2026-04-16 10:31 | 49.00178 | 9.97464 | 20684 ft | 398 kts | 48° |
| 2026-04-16 10:31 | 49.01940 | 10.00744 | 21246 ft | 402 kts | 47° |
| 2026-04-16 10:32 | 49.03719 | 10.04060 | 21792 ft | 406 kts | 47° |
| 2026-04-16 10:32 | 49.05515 | 10.07413 | 22333 ft | 409 kts | 47° |
| 2026-04-16 10:32 | 49.07326 | 10.10797 | 22869 ft | 413 kts | 47° |
| 2026-04-16 10:32 | 49.09150 | 10.14210 | 23378 ft | 418 kts | 47° |
| 2026-04-16 10:33 | 49.10997 | 10.17670 | 23836 ft | 423 kts | 47° |
| 2026-04-16 10:33 | 49.12839 | 10.21125 | 24279 ft | 425 kts | 47° |
| 2026-04-16 10:33 | 49.14720 | 10.24614 | 24795 ft | 425 kts | 45° |
| 2026-04-16 10:33 | 49.16754 | 10.27900 | 25216 ft | 426 kts | 41° |
| 2026-04-16 10:34 | 49.18879 | 10.31081 | 25600 ft | 430 kts | 40° |
| 2026-04-16 10:34 | 49.21019 | 10.34294 | 26019 ft | 433 kts | 41° |
| 2026-04-16 10:34 | 49.23155 | 10.37572 | 26410 ft | 436 kts | 41° |
| 2026-04-16 10:34 | 49.25298 | 10.40882 | 26806 ft | 439 kts | 41° |
| 2026-04-16 10:35 | 49.27466 | 10.44200 | 27212 ft | 442 kts | 41° |
| 2026-04-16 10:35 | 49.29651 | 10.47532 | 27567 ft | 445 kts | 41° |
| 2026-04-16 10:35 | 49.31139 | 10.49803 | 27809 ft | 447 kts | 41° |
| 2026-04-16 10:35 | 49.31723 | 10.50695 | 27908 ft | 448 kts | 41° |
| 2026-04-16 10:36 | 49.33935 | 10.54084 | 28285 ft | 451 kts | 41° |
| 2026-04-16 10:36 | 49.36142 | 10.57520 | 28652 ft | 454 kts | 42° |
| 2026-04-16 10:36 | 49.38319 | 10.61049 | 28993 ft | 457 kts | 43° |
| 2026-04-16 10:36 | 49.40503 | 10.64622 | 29336 ft | 459 kts | 43° |
| 2026-04-16 10:37 | 49.42707 | 10.68197 | 29666 ft | 462 kts | 42° |
| 2026-04-16 10:37 | 49.44950 | 10.71733 | 29996 ft | 464 kts | 41° |
| 2026-04-16 10:37 | 49.47223 | 10.75281 | 30312 ft | 466 kts | 41° |
| 2026-04-16 10:37 | 49.49502 | 10.78854 | 30559 ft | 469 kts | 41° |
| 2026-04-16 10:38 | 49.51785 | 10.82453 | 30801 ft | 471 kts | 42° |
| 2026-04-16 10:38 | 49.54079 | 10.86084 | 31043 ft | 474 kts | 42° |
| 2026-04-16 10:38 | 49.56381 | 10.89736 | 31293 ft | 476 kts | 42° |
| 2026-04-16 10:38 | 49.58660 | 10.93357 | 31541 ft | 478 kts | 42° |
| 2026-04-16 10:39 | 49.61014 | 10.97100 | 31784 ft | 480 kts | 42° |
| 2026-04-16 10:39 | 49.63304 | 11.00747 | 32055 ft | 481 kts | 42° |
| 2026-04-16 10:39 | 49.65632 | 11.04458 | 32412 ft | 480 kts | 42° |
| 2026-04-16 10:39 | 49.67949 | 11.08158 | 32812 ft | 479 kts | 42° |
| 2026-04-16 10:40 | 49.70267 | 11.11861 | 33157 ft | 479 kts | 42° |
| 2026-04-16 10:40 | 49.72579 | 11.15562 | 33482 ft | 479 kts | 42° |
| 2026-04-16 10:40 | 49.75033 | 11.19009 | 33788 ft | 473 kts | 30° |
| 2026-04-16 10:40 | 49.77905 | 11.21337 | 34119 ft | 462 kts | 14° |
| 2026-04-16 10:41 | 49.80979 | 11.22565 | 34446 ft | 452 kts | 1° |
| 2026-04-16 10:41 | 49.84078 | 11.22725 | 34731 ft | 445 kts | 354° |
| 2026-04-16 10:41 | 49.87181 | 11.22656 | 35008 ft | 445 kts | 354° |
| 2026-04-16 10:41 | 49.90266 | 11.22599 | 35386 ft | 443 kts | 354° |
| 2026-04-16 10:42 | 49.93343 | 11.22574 | 35731 ft | 442 kts | 354° |
| 2026-04-16 10:42 | 49.96420 | 11.22574 | 35983 ft | 443 kts | 355° |
| 2026-04-16 10:42 | 49.99511 | 11.22589 | 36218 ft | 444 kts | 355° |
| 2026-04-16 10:42 | 50.02593 | 11.22609 | 36504 ft | 443 kts | 355° |
| 2026-04-16 10:43 | 50.05677 | 11.22629 | 36812 ft | 442 kts | 355° |
| 2026-04-16 10:43 | 50.08752 | 11.22646 | 37101 ft | 442 kts | 355° |
| 2026-04-16 10:43 | 50.11832 | 11.22664 | 37386 ft | 442 kts | 355° |
| 2026-04-16 10:43 | 50.14875 | 11.22681 | 37645 ft | 442 kts | 355° |
| 2026-04-16 10:44 | 50.17951 | 11.22699 | 37908 ft | 442 kts | 355° |
| 2026-04-16 10:44 | 50.21068 | 11.22718 | 38181 ft | 442 kts | 355° |
| 2026-04-16 10:44 | 50.24141 | 11.22737 | 38420 ft | 442 kts | 355° |
| 2026-04-16 10:44 | 50.27177 | 11.22755 | 38648 ft | 442 kts | 355° |
| 2026-04-16 10:45 | 50.30294 | 11.22773 | 38891 ft | 442 kts | 355° |
| 2026-04-16 10:45 | 50.33326 | 11.22791 | 39061 ft | 442 kts | 356° |
| 2026-04-16 10:45 | 50.36405 | 11.22789 | 39196 ft | 442 kts | 354° |
| 2026-04-16 10:45 | 50.39479 | 11.22511 | 39206 ft | 442 kts | 351° |
| 2026-04-16 10:46 | 50.45588 | 11.21496 | 39212 ft | 439 kts | 349° |
| 2026-04-16 10:46 | 50.51647 | 11.20472 | 39214 ft | 437 kts | 350° |
| 2026-04-16 10:47 | 50.57685 | 11.19539 | 39209 ft | 435 kts | 350° |
| 2026-04-16 10:47 | 50.63693 | 11.18632 | 39214 ft | 433 kts | 350° |
| 2026-04-16 10:48 | 50.69688 | 11.17720 | 39215 ft | 433 kts | 350° |
| 2026-04-16 10:48 | 50.75682 | 11.16804 | 39213 ft | 433 kts | 350° |
| 2026-04-16 10:49 | 50.81689 | 11.15884 | 39226 ft | 435 kts | 350° |
| 2026-04-16 10:49 | 50.87691 | 11.14963 | 39219 ft | 437 kts | 350° |
| 2026-04-16 10:50 | 50.93761 | 11.14028 | 39217 ft | 439 kts | 350° |
| 2026-04-16 10:50 | 50.99850 | 11.13089 | 39215 ft | 441 kts | 350° |
| 2026-04-16 10:51 | 51.05972 | 11.12142 | 39225 ft | 442 kts | 350° |
| 2026-04-16 10:51 | 51.12115 | 11.11303 | 39207 ft | 447 kts | 355° |
| 2026-04-16 10:52 | 51.18330 | 11.12562 | 39217 ft | 454 kts | 8° |
| 2026-04-16 10:52 | 51.24512 | 11.14664 | 39205 ft | 454 kts | 7° |
| 2026-04-16 10:53 | 51.30710 | 11.16617 | 39207 ft | 454 kts | 7° |
| 2026-04-16 10:53 | 51.36918 | 11.18548 | 39191 ft | 453 kts | 7° |
| 2026-04-16 10:54 | 51.43106 | 11.20490 | 39192 ft | 453 kts | 7° |
| 2026-04-16 10:54 | 51.49284 | 11.22434 | 39190 ft | 452 kts | 7° |
| 2026-04-16 10:55 | 51.55452 | 11.24380 | 39196 ft | 451 kts | 7° |
| 2026-04-16 10:55 | 51.61497 | 11.27194 | 39183 ft | 458 kts | 22° |
| 2026-04-16 10:56 | 51.66822 | 11.32910 | 39190 ft | 464 kts | 37° |
| 2026-04-16 10:56 | 51.71657 | 11.39831 | 39184 ft | 465 kts | 39° |
| 2026-04-16 10:57 | 51.76486 | 11.46778 | 39193 ft | 465 kts | 38° |
| 2026-04-16 10:57 | 51.81315 | 11.53622 | 39184 ft | 465 kts | 38° |
| 2026-04-16 10:58 | 51.86189 | 11.60506 | 39186 ft | 465 kts | 38° |
| 2026-04-16 10:58 | 51.91057 | 11.67404 | 39183 ft | 466 kts | 38° |
| 2026-04-16 10:59 | 51.95932 | 11.74322 | 39189 ft | 465 kts | 36° |
| 2026-04-16 10:59 | 51.98583 | 11.77262 | 39180 ft | 460 kts | 24° |
| 2026-04-16 10:59 | 52.01497 | 11.79314 | 39188 ft | 454 kts | 14° |
| 2026-04-16 11:00 | 52.04547 | 11.80511 | 39178 ft | 449 kts | 3° |
| 2026-04-16 11:00 | 52.07644 | 11.80985 | 39194 ft | 447 kts | 1° |
| 2026-04-16 11:00 | 52.13850 | 11.81876 | 39184 ft | 448 kts | 2° |
| 2026-04-16 11:01 | 52.20063 | 11.82947 | 39198 ft | 449 kts | 2° |
| 2026-04-16 11:01 | 52.26286 | 11.84035 | 39188 ft | 450 kts | 2° |
| 2026-04-16 11:02 | 52.32519 | 11.85117 | 39182 ft | 451 kts | 2° |
| 2026-04-16 11:02 | 52.38761 | 11.86203 | 39182 ft | 451 kts | 2° |
| 2026-04-16 11:03 | 52.45007 | 11.87291 | 39186 ft | 452 kts | 2° |
| 2026-04-16 11:04 | 52.54385 | 11.88932 | 39184 ft | 452 kts | 2° |
| 2026-04-16 11:04 | 52.60635 | 11.90029 | 39180 ft | 451 kts | 2° |
| 2026-04-16 11:05 | 52.66781 | 11.92320 | 39196 ft | 458 kts | 17° |
| 2026-04-16 11:05 | 52.72671 | 11.96175 | 39176 ft | 458 kts | 18° |
| 2026-04-16 11:06 | 52.78619 | 11.99969 | 39178 ft | 459 kts | 19° |
| 2026-04-16 11:06 | 52.84398 | 12.04519 | 39179 ft | 460 kts | 23° |
| 2026-04-16 11:07 | 52.90141 | 12.09213 | 39177 ft | 460 kts | 22° |
| 2026-04-16 11:07 | 52.95899 | 12.13808 | 39177 ft | 459 kts | 21° |
| 2026-04-16 11:08 | 53.01769 | 12.17988 | 39178 ft | 458 kts | 19° |
| 2026-04-16 11:08 | 53.07666 | 12.22005 | 39181 ft | 458 kts | 19° |
| 2026-04-16 11:09 | 53.13557 | 12.26070 | 39190 ft | 459 kts | 19° |
| 2026-04-16 11:09 | 53.19443 | 12.30188 | 39183 ft | 459 kts | 19° |
| 2026-04-16 11:10 | 53.25331 | 12.34335 | 39180 ft | 459 kts | 19° |
| 2026-04-16 11:10 | 53.31214 | 12.38491 | 39178 ft | 459 kts | 19° |
| 2026-04-16 11:11 | 53.37102 | 12.42661 | 39186 ft | 459 kts | 19° |
| 2026-04-16 11:11 | 53.42982 | 12.46838 | 39184 ft | 459 kts | 19° |
| 2026-04-16 11:12 | 53.48869 | 12.51032 | 39178 ft | 459 kts | 20° |
| 2026-04-16 11:12 | 53.54747 | 12.55232 | 39179 ft | 459 kts | 20° |
| 2026-04-16 11:13 | 53.60626 | 12.59446 | 39183 ft | 458 kts | 20° |
| 2026-04-16 11:13 | 53.66455 | 12.63637 | 39175 ft | 458 kts | 20° |
| 2026-04-16 11:14 | 53.72310 | 12.67858 | 39174 ft | 457 kts | 20° |
| 2026-04-16 11:14 | 53.78158 | 12.72087 | 39175 ft | 457 kts | 20° |
| 2026-04-16 11:15 | 53.83999 | 12.76321 | 39186 ft | 456 kts | 20° |
| 2026-04-16 11:15 | 53.89825 | 12.80556 | 39182 ft | 456 kts | 20° |
| 2026-04-16 11:16 | 53.95645 | 12.84801 | 39183 ft | 455 kts | 20° |
| 2026-04-16 11:16 | 54.00522 | 12.88369 | 39179 ft | 455 kts | 21° |
| 2026-04-16 11:17 | 54.06284 | 12.92595 | 39197 ft | 454 kts | 21° |
| 2026-04-16 11:17 | 54.12088 | 12.96851 | 39188 ft | 454 kts | 20° |
| 2026-04-16 11:18 | 54.18085 | 13.00132 | 39194 ft | 452 kts | 13° |
| 2026-04-16 11:18 | 54.24158 | 13.02967 | 39189 ft | 452 kts | 13° |
| 2026-04-16 11:19 | 54.30221 | 13.05897 | 39206 ft | 453 kts | 13° |
| 2026-04-16 11:19 | 54.36283 | 13.08915 | 39196 ft | 454 kts | 14° |
| 2026-04-16 11:20 | 54.42358 | 13.11959 | 39195 ft | 455 kts | 14° |
| 2026-04-16 11:20 | 54.48437 | 13.15041 | 39197 ft | 456 kts | 14° |
| 2026-04-16 11:21 | 54.54504 | 13.18316 | 39197 ft | 457 kts | 15° |
| 2026-04-16 11:21 | 54.60571 | 13.21630 | 39206 ft | 458 kts | 15° |
| 2026-04-16 11:22 | 54.66615 | 13.24919 | 39208 ft | 459 kts | 15° |
| 2026-04-16 11:22 | 54.72707 | 13.28232 | 39203 ft | 459 kts | 15° |
| 2026-04-16 11:23 | 54.78803 | 13.31557 | 39207 ft | 459 kts | 15° |
| 2026-04-16 11:23 | 54.84890 | 13.34888 | 39212 ft | 459 kts | 15° |
| 2026-04-16 11:24 | 54.90996 | 13.38239 | 39208 ft | 459 kts | 15° |
| 2026-04-16 11:24 | 54.97025 | 13.41947 | 39214 ft | 460 kts | 18° |
| 2026-04-16 11:25 | 55.03013 | 13.45898 | 39212 ft | 459 kts | 17° |
| 2026-04-16 11:25 | 55.09036 | 13.49577 | 39221 ft | 458 kts | 17° |
| 2026-04-16 11:26 | 55.15065 | 13.53218 | 39214 ft | 458 kts | 17° |
| 2026-04-16 11:26 | 55.21075 | 13.56896 | 39209 ft | 457 kts | 17° |
| 2026-04-16 11:27 | 55.27079 | 13.60611 | 39203 ft | 457 kts | 17° |
| 2026-04-16 11:27 | 55.33031 | 13.64315 | 39203 ft | 456 kts | 17° |
| 2026-04-16 11:28 | 55.39053 | 13.68075 | 39201 ft | 456 kts | 17° |
| 2026-04-16 11:28 | 55.44990 | 13.71793 | 39202 ft | 456 kts | 17° |
| 2026-04-16 11:29 | 55.50977 | 13.75553 | 39198 ft | 456 kts | 17° |
| 2026-04-16 11:29 | 55.56940 | 13.79311 | 39221 ft | 456 kts | 17° |
| 2026-04-16 11:30 | 55.62915 | 13.83088 | 39214 ft | 456 kts | 17° |
| 2026-04-16 11:30 | 55.68890 | 13.86877 | 39212 ft | 456 kts | 17° |
| 2026-04-16 11:31 | 55.74852 | 13.90671 | 39224 ft | 455 kts | 17° |
| 2026-04-16 11:31 | 55.80812 | 13.94475 | 39218 ft | 455 kts | 18° |
| 2026-04-16 11:32 | 55.86769 | 13.98291 | 39217 ft | 455 kts | 18° |
| 2026-04-16 11:32 | 55.92723 | 14.02116 | 39216 ft | 454 kts | 18° |
| 2026-04-16 11:33 | 55.98667 | 14.05947 | 39218 ft | 454 kts | 18° |
| 2026-04-16 11:33 | 56.04614 | 14.09793 | 39220 ft | 454 kts | 18° |
| 2026-04-16 11:34 | 56.10555 | 14.13649 | 39218 ft | 454 kts | 18° |
| 2026-04-16 11:34 | 56.16498 | 14.17518 | 39213 ft | 454 kts | 18° |
| 2026-04-16 11:35 | 56.22434 | 14.21395 | 39211 ft | 454 kts | 18° |
| 2026-04-16 11:35 | 56.28376 | 14.25288 | 39211 ft | 454 kts | 18° |
| 2026-04-16 11:36 | 56.34309 | 14.29190 | 39213 ft | 454 kts | 18° |
| 2026-04-16 11:36 | 56.40252 | 14.33110 | 39207 ft | 454 kts | 18° |
| 2026-04-16 11:37 | 56.46184 | 14.37036 | 39205 ft | 454 kts | 18° |
| 2026-04-16 11:37 | 56.52123 | 14.40981 | 39204 ft | 454 kts | 18° |
| 2026-04-16 11:38 | 56.58055 | 14.44933 | 39213 ft | 454 kts | 18° |
| 2026-04-16 11:38 | 56.63943 | 14.48870 | 39201 ft | 454 kts | 18° |
| 2026-04-16 11:39 | 56.69866 | 14.52843 | 39195 ft | 454 kts | 19° |
| 2026-04-16 11:39 | 56.75786 | 14.56827 | 39192 ft | 453 kts | 19° |
| 2026-04-16 11:40 | 56.81699 | 14.60820 | 39198 ft | 452 kts | 19° |
| 2026-04-16 11:40 | 56.87597 | 14.64817 | 39185 ft | 452 kts | 19° |
| 2026-04-16 11:41 | 56.93490 | 14.68823 | 39184 ft | 451 kts | 19° |
| 2026-04-16 11:41 | 56.99366 | 14.72832 | 39200 ft | 450 kts | 19° |
| 2026-04-16 11:42 | 57.05230 | 14.76845 | 39196 ft | 450 kts | 19° |
| 2026-04-16 11:42 | 57.11102 | 14.80879 | 39202 ft | 450 kts | 19° |
| 2026-04-16 11:43 | 57.16922 | 14.84889 | 39198 ft | 450 kts | 19° |
| 2026-04-16 11:43 | 57.22820 | 14.88967 | 39199 ft | 450 kts | 19° |
| 2026-04-16 11:44 | 57.28633 | 14.93000 | 39200 ft | 450 kts | 19° |
| 2026-04-16 11:44 | 57.34491 | 14.97080 | 39200 ft | 450 kts | 19° |
| 2026-04-16 11:45 | 57.40352 | 15.01174 | 39196 ft | 450 kts | 20° |
| 2026-04-16 11:45 | 57.46216 | 15.05282 | 39199 ft | 450 kts | 19° |
| 2026-04-16 11:46 | 57.52070 | 15.09401 | 39197 ft | 450 kts | 19° |
| 2026-04-16 11:46 | 57.57933 | 15.13541 | 39209 ft | 450 kts | 20° |
| 2026-04-16 11:47 | 57.63789 | 15.17686 | 39194 ft | 450 kts | 19° |
| 2026-04-16 11:47 | 57.69641 | 15.21843 | 39196 ft | 450 kts | 19° |
| 2026-04-16 11:48 | 57.75491 | 15.26019 | 39194 ft | 450 kts | 19° |
| 2026-04-16 11:48 | 57.81333 | 15.30200 | 39197 ft | 449 kts | 19° |
| 2026-04-16 11:49 | 57.87172 | 15.34392 | 39192 ft | 449 kts | 20° |
| 2026-04-16 11:49 | 57.93006 | 15.38597 | 39195 ft | 449 kts | 20° |
| 2026-04-16 11:50 | 57.98840 | 15.42818 | 39198 ft | 449 kts | 19° |
| 2026-04-16 11:50 | 58.04665 | 15.47043 | 39193 ft | 449 kts | 20° |
| 2026-04-16 11:51 | 58.10490 | 15.51282 | 39199 ft | 448 kts | 20° |
| 2026-04-16 11:51 | 58.16276 | 15.55511 | 39192 ft | 448 kts | 20° |
| 2026-04-16 11:52 | 58.22090 | 15.59776 | 39195 ft | 448 kts | 20° |
| 2026-04-16 11:52 | 58.27893 | 15.64046 | 39194 ft | 447 kts | 20° |
| 2026-04-16 11:53 | 58.33698 | 15.68333 | 39199 ft | 447 kts | 20° |
| 2026-04-16 11:53 | 58.39497 | 15.72631 | 39219 ft | 447 kts | 20° |
| 2026-04-16 11:54 | 58.45285 | 15.76936 | 39212 ft | 446 kts | 20° |
| 2026-04-16 11:54 | 58.51069 | 15.81252 | 39207 ft | 445 kts | 21° |
| 2026-04-16 11:55 | 58.56837 | 15.85574 | 39206 ft | 445 kts | 21° |
| 2026-04-16 11:55 | 58.62593 | 15.89900 | 39200 ft | 444 kts | 20° |
| 2026-04-16 11:56 | 58.68344 | 15.94238 | 39207 ft | 444 kts | 21° |
| 2026-04-16 11:56 | 58.74068 | 15.98572 | 39208 ft | 444 kts | 20° |
| 2026-04-16 11:57 | 58.79814 | 16.02939 | 39207 ft | 444 kts | 21° |
| 2026-04-16 11:57 | 58.85565 | 16.07323 | 39205 ft | 444 kts | 20° |
| 2026-04-16 11:58 | 58.91321 | 16.11727 | 39201 ft | 445 kts | 21° |
| 2026-04-16 11:58 | 58.97080 | 16.16148 | 39204 ft | 446 kts | 21° |
| 2026-04-16 11:59 | 59.02851 | 16.20598 | 39205 ft | 447 kts | 21° |
| 2026-04-16 11:59 | 59.08629 | 16.25068 | 39206 ft | 447 kts | 21° |
| 2026-04-16 12:00 | 59.14419 | 16.29560 | 39207 ft | 448 kts | 21° |
| 2026-04-16 12:00 | 59.20205 | 16.34068 | 39208 ft | 448 kts | 21° |
| 2026-04-16 12:01 | 59.26004 | 16.38605 | 39212 ft | 449 kts | 21° |
| 2026-04-16 12:01 | 59.31803 | 16.43158 | 39209 ft | 449 kts | 21° |
| 2026-04-16 12:02 | 59.39537 | 16.49256 | 39211 ft | 450 kts | 21° |
| 2026-04-16 12:02 | 59.45338 | 16.53848 | 39206 ft | 450 kts | 21° |
| 2026-04-16 12:03 | 59.51150 | 16.58466 | 39214 ft | 450 kts | 21° |
| 2026-04-16 12:03 | 59.56957 | 16.63098 | 39212 ft | 450 kts | 22° |
| 2026-04-16 12:04 | 59.62766 | 16.67748 | 39212 ft | 451 kts | 21° |
| 2026-04-16 12:04 | 59.68578 | 16.72419 | 39209 ft | 451 kts | 22° |
| 2026-04-16 12:05 | 59.74394 | 16.77110 | 39210 ft | 451 kts | 22° |
| 2026-04-16 12:05 | 59.80211 | 16.81821 | 39212 ft | 452 kts | 22° |
| 2026-04-16 12:06 | 59.86033 | 16.86553 | 39215 ft | 452 kts | 22° |
| 2026-04-16 12:06 | 59.91855 | 16.91303 | 39213 ft | 452 kts | 22° |
| 2026-04-16 12:07 | 59.97679 | 16.96073 | 39206 ft | 453 kts | 22° |
| 2026-04-16 12:07 | 60.03505 | 17.00862 | 39216 ft | 453 kts | 22° |
| 2026-04-16 12:08 | 60.09340 | 17.05677 | 39219 ft | 453 kts | 23° |
| 2026-04-16 12:08 | 60.15128 | 17.10472 | 39231 ft | 453 kts | 22° |
| 2026-04-16 12:09 | 60.20968 | 17.15329 | 39232 ft | 454 kts | 23° |
| 2026-04-16 12:09 | 60.26803 | 17.20201 | 39236 ft | 454 kts | 23° |
| 2026-04-16 12:10 | 60.32645 | 17.25095 | 39241 ft | 454 kts | 23° |
| 2026-04-16 12:10 | 60.38484 | 17.30010 | 39247 ft | 455 kts | 23° |
| 2026-04-16 12:11 | 60.44325 | 17.34946 | 39247 ft | 455 kts | 23° |
| 2026-04-16 12:11 | 60.50168 | 17.39897 | 39253 ft | 455 kts | 23° |
| 2026-04-16 12:12 | 60.56004 | 17.44863 | 39262 ft | 455 kts | 23° |
| 2026-04-16 12:12 | 60.61840 | 17.49855 | 39265 ft | 455 kts | 24° |
| 2026-04-16 12:13 | 60.67670 | 17.54855 | 39257 ft | 455 kts | 23° |
| 2026-04-16 12:13 | 60.73455 | 17.59837 | 39256 ft | 454 kts | 23° |
| 2026-04-16 12:14 | 60.79280 | 17.64871 | 39264 ft | 454 kts | 23° |
| 2026-04-16 12:14 | 60.85092 | 17.69919 | 39262 ft | 454 kts | 24° |
| 2026-04-16 12:15 | 60.90898 | 17.74983 | 39262 ft | 453 kts | 24° |
| 2026-04-16 12:15 | 60.96709 | 17.80066 | 39264 ft | 453 kts | 23° |
| 2026-04-16 12:16 | 61.02508 | 17.85160 | 39266 ft | 453 kts | 24° |
| 2026-04-16 12:16 | 61.08305 | 17.90273 | 39265 ft | 453 kts | 24° |
| 2026-04-16 12:17 | 61.14101 | 17.95405 | 39258 ft | 453 kts | 24° |
| 2026-04-16 12:17 | 61.19888 | 18.00550 | 39258 ft | 453 kts | 24° |
| 2026-04-16 12:18 | 61.25671 | 18.05714 | 39264 ft | 452 kts | 24° |
| 2026-04-16 12:18 | 61.31450 | 18.10897 | 39265 ft | 452 kts | 24° |
| 2026-04-16 12:19 | 61.37217 | 18.16084 | 39265 ft | 452 kts | 24° |
| 2026-04-16 12:19 | 61.42985 | 18.21297 | 39266 ft | 451 kts | 24° |
| 2026-04-16 12:20 | 61.48743 | 18.26520 | 39266 ft | 451 kts | 24° |
| 2026-04-16 12:20 | 61.54498 | 18.31762 | 39265 ft | 451 kts | 24° |
| 2026-04-16 12:21 | 61.60209 | 18.36987 | 39270 ft | 451 kts | 25° |
| 2026-04-16 12:21 | 61.65951 | 18.42261 | 39270 ft | 450 kts | 25° |
| 2026-04-16 12:22 | 61.71691 | 18.47555 | 39271 ft | 450 kts | 25° |
| 2026-04-16 12:22 | 61.77421 | 18.52861 | 39235 ft | 450 kts | 24° |
| 2026-04-16 12:23 | 61.80317 | 18.55550 | 38659 ft | 458 kts | 25° |
| 2026-04-16 12:23 | 61.83225 | 18.58255 | 38004 ft | 455 kts | 25° |
| 2026-04-16 12:23 | 61.86114 | 18.60948 | 37334 ft | 453 kts | 25° |
| 2026-04-16 12:23 | 61.88993 | 18.63637 | 36650 ft | 451 kts | 25° |
| 2026-04-16 12:24 | 61.91863 | 18.66323 | 36018 ft | 450 kts | 25° |
| 2026-04-16 12:24 | 61.94707 | 18.68991 | 35524 ft | 445 kts | 26° |
| 2026-04-16 12:24 | 61.97527 | 18.71642 | 35017 ft | 441 kts | 26° |
| 2026-04-16 12:24 | 62.00320 | 18.74272 | 34512 ft | 437 kts | 26° |
| 2026-04-16 12:25 | 62.03087 | 18.76885 | 33950 ft | 435 kts | 26° |
| 2026-04-16 12:25 | 62.05843 | 18.79492 | 33398 ft | 431 kts | 26° |
| 2026-04-16 12:25 | 62.08572 | 18.82078 | 32890 ft | 427 kts | 26° |
| 2026-04-16 12:25 | 62.11276 | 18.84646 | 32401 ft | 424 kts | 26° |
| 2026-04-16 12:26 | 62.13960 | 18.87199 | 31922 ft | 420 kts | 26° |
| 2026-04-16 12:26 | 62.16622 | 18.89738 | 31442 ft | 418 kts | 26° |
| 2026-04-16 12:26 | 62.19269 | 18.92266 | 30983 ft | 415 kts | 26° |
| 2026-04-16 12:26 | 62.21900 | 18.94786 | 30524 ft | 413 kts | 26° |
| 2026-04-16 12:27 | 62.24520 | 18.97298 | 30021 ft | 411 kts | 26° |
| 2026-04-16 12:27 | 62.27121 | 18.99798 | 29506 ft | 409 kts | 26° |
| 2026-04-16 12:27 | 62.29708 | 19.02288 | 29022 ft | 405 kts | 26° |
| 2026-04-16 12:27 | 62.32267 | 19.04755 | 28555 ft | 402 kts | 26° |
| 2026-04-16 12:28 | 62.34810 | 19.07212 | 28079 ft | 399 kts | 26° |
| 2026-04-16 12:28 | 62.37332 | 19.09652 | 27614 ft | 396 kts | 26° |
| 2026-04-16 12:28 | 62.39841 | 19.12085 | 27156 ft | 393 kts | 26° |
| 2026-04-16 12:28 | 62.42329 | 19.14503 | 26703 ft | 391 kts | 26° |
| 2026-04-16 12:29 | 62.44790 | 19.16899 | 26250 ft | 388 kts | 26° |
| 2026-04-16 12:29 | 62.47243 | 19.19290 | 25810 ft | 385 kts | 26° |
| 2026-04-16 12:29 | 62.49649 | 19.21641 | 25376 ft | 383 kts | 26° |
| 2026-04-16 12:29 | 62.52070 | 19.24010 | 24936 ft | 381 kts | 26° |
| 2026-04-16 12:30 | 62.54477 | 19.26369 | 24505 ft | 379 kts | 26° |
| 2026-04-16 12:30 | 62.56868 | 19.28718 | 24077 ft | 377 kts | 26° |
| 2026-04-16 12:30 | 62.59251 | 19.31062 | 23600 ft | 375 kts | 26° |
| 2026-04-16 12:30 | 62.61617 | 19.33395 | 23106 ft | 372 kts | 26° |
| 2026-04-16 12:31 | 62.63964 | 19.35712 | 22648 ft | 369 kts | 26° |
| 2026-04-16 12:31 | 62.66295 | 19.38017 | 22215 ft | 366 kts | 26° |
| 2026-04-16 12:31 | 62.68608 | 19.40308 | 21783 ft | 363 kts | 26° |
| 2026-04-16 12:31 | 62.70901 | 19.42584 | 21346 ft | 361 kts | 26° |
| 2026-04-16 12:32 | 62.73177 | 19.44846 | 20920 ft | 359 kts | 26° |
| 2026-04-16 12:32 | 62.75443 | 19.47102 | 20498 ft | 356 kts | 26° |
| 2026-04-16 12:32 | 62.77691 | 19.49345 | 20084 ft | 354 kts | 26° |
| 2026-04-16 12:32 | 62.79931 | 19.51584 | 19670 ft | 353 kts | 26° |
| 2026-04-16 12:33 | 62.82162 | 19.53816 | 19253 ft | 351 kts | 26° |
| 2026-04-16 12:33 | 62.84379 | 19.56040 | 18837 ft | 350 kts | 26° |
| 2026-04-16 12:33 | 62.86585 | 19.58255 | 18389 ft | 349 kts | 26° |
| 2026-04-16 12:33 | 62.88794 | 19.60477 | 17926 ft | 347 kts | 26° |
| 2026-04-16 12:34 | 62.90982 | 19.62681 | 17484 ft | 345 kts | 26° |
| 2026-04-16 12:34 | 62.93158 | 19.64877 | 17048 ft | 343 kts | 26° |
| 2026-04-16 12:34 | 62.95313 | 19.67055 | 16645 ft | 340 kts | 26° |
| 2026-04-16 12:34 | 62.97453 | 19.69221 | 16234 ft | 337 kts | 26° |
| 2026-04-16 12:35 | 62.99576 | 19.71375 | 15833 ft | 335 kts | 26° |
| 2026-04-16 12:35 | 63.01680 | 19.73512 | 15434 ft | 332 kts | 26° |
| 2026-04-16 12:35 | 63.03771 | 19.75639 | 15035 ft | 330 kts | 26° |
| 2026-04-16 12:35 | 63.05847 | 19.77755 | 14638 ft | 328 kts | 26° |
| 2026-04-16 12:36 | 63.07911 | 19.79861 | 14232 ft | 326 kts | 26° |
| 2026-04-16 12:36 | 63.09962 | 19.81958 | 13816 ft | 324 kts | 26° |
| 2026-04-16 12:36 | 63.12003 | 19.84047 | 13384 ft | 322 kts | 26° |
| 2026-04-16 12:36 | 63.14023 | 19.86119 | 12978 ft | 319 kts | 26° |
| 2026-04-16 12:37 | 63.16030 | 19.88180 | 12577 ft | 317 kts | 26° |
| 2026-04-16 12:37 | 63.18022 | 19.90230 | 12183 ft | 314 kts | 26° |
| 2026-04-16 12:37 | 63.19972 | 19.92237 | 11794 ft | 312 kts | 26° |
| 2026-04-16 12:37 | 63.21939 | 19.94266 | 11406 ft | 310 kts | 26° |
| 2026-04-16 12:38 | 63.23885 | 19.96277 | 11024 ft | 308 kts | 26° |
| 2026-04-16 12:38 | 63.25822 | 19.98307 | 10639 ft | 306 kts | 29° |
| 2026-04-16 12:38 | 63.27518 | 20.01035 | 10451 ft | 296 kts | 43° |
| 2026-04-16 12:38 | 63.29023 | 20.04047 | 10331 ft | 286 kts | 44° |
| 2026-04-16 12:39 | 63.30465 | 20.06979 | 10232 ft | 276 kts | 44° |
| 2026-04-16 12:39 | 63.31908 | 20.09907 | 9561 ft | 286 kts | 43° |
| 2026-04-16 12:39 | 63.33389 | 20.12893 | 9134 ft | 287 kts | 43° |
| 2026-04-16 12:39 | 63.34869 | 20.15862 | 8769 ft | 286 kts | 42° |
| 2026-04-16 12:40 | 63.36344 | 20.18810 | 8416 ft | 284 kts | 42° |
| 2026-04-16 12:40 | 63.37809 | 20.21735 | 8071 ft | 282 kts | 41° |
| 2026-04-16 12:40 | 63.39267 | 20.24644 | 7729 ft | 280 kts | 41° |
| 2026-04-16 12:40 | 63.40711 | 20.27529 | 7423 ft | 277 kts | 41° |
| 2026-04-16 12:41 | 63.42143 | 20.30389 | 7097 ft | 276 kts | 41° |
| 2026-04-16 12:41 | 63.43568 | 20.33237 | 6763 ft | 274 kts | 41° |
| 2026-04-16 12:41 | 63.44985 | 20.36075 | 6412 ft | 272 kts | 41° |
| 2026-04-16 12:41 | 63.46392 | 20.38892 | 6068 ft | 271 kts | 41° |
| 2026-04-16 12:42 | 63.47784 | 20.41688 | 5728 ft | 269 kts | 41° |
| 2026-04-16 12:42 | 63.49172 | 20.44479 | 5397 ft | 267 kts | 41° |
| 2026-04-16 12:42 | 63.50548 | 20.47246 | 5068 ft | 265 kts | 41° |
| 2026-04-16 12:42 | 63.52000 | 20.49632 | 4822 ft | 260 kts | 30° |
| 2026-04-16 12:43 | 63.53561 | 20.51596 | 4604 ft | 255 kts | 28° |
| 2026-04-16 12:43 | 63.55121 | 20.53519 | 4381 ft | 250 kts | 28° |
| 2026-04-16 12:43 | 63.56612 | 20.55368 | 4174 ft | 246 kts | 28° |
| 2026-04-16 12:43 | 63.58090 | 20.57240 | 3966 ft | 242 kts | 29° |
| 2026-04-16 12:44 | 63.59643 | 20.58491 | 3741 ft | 237 kts | 3° |
| 2026-04-16 12:44 | 63.61262 | 20.58200 | 3572 ft | 232 kts | 350° |
| 2026-04-16 12:44 | 63.62835 | 20.57480 | 3373 ft | 229 kts | 348° |
| 2026-04-16 12:44 | 63.64383 | 20.56718 | 3181 ft | 226 kts | 345° |
| 2026-04-16 12:45 | 63.65755 | 20.55069 | 2982 ft | 224 kts | 323° |
| 2026-04-16 12:45 | 63.66943 | 20.52826 | 2802 ft | 222 kts | 321° |
| 2026-04-16 12:45 | 63.68084 | 20.50543 | 2628 ft | 216 kts | 319° |
| 2026-04-16 12:45 | 63.69180 | 20.48334 | 2437 ft | 208 kts | 319° |
| 2026-04-16 12:46 | 63.70243 | 20.46196 | 2159 ft | 200 kts | 321° |
| 2026-04-16 12:46 | 63.71239 | 20.44199 | 1902 ft | 183 kts | 321° |
| 2026-04-16 12:46 | 63.72145 | 20.42382 | 1699 ft | 162 kts | 320° |
| 2026-04-16 12:46 | 63.72942 | 20.40762 | 1494 ft | 151 kts | 320° |
| 2026-04-16 12:47 | 63.73699 | 20.39170 | 1307 ft | 147 kts | 320° |
| 2026-04-16 12:47 | 63.74450 | 20.37602 | 1091 ft | 148 kts | 319° |
| 2026-04-16 12:47 | 63.75217 | 20.36040 | 866 ft | 148 kts | 321° |
| 2026-04-16 12:47 | 63.75980 | 20.34577 | 681 ft | 145 kts | 322° |
| 2026-04-16 12:48 | 63.76752 | 20.33086 | 456 ft | 148 kts | 321° |
| 2026-04-16 12:48 | 63.77537 | 20.31539 | 254 ft | 148 kts | 320° |
| 2026-04-16 12:48 | 63.78302 | 20.30031 | 70 ft | 141 kts | 319° |
| 2026-04-16 12:48 | 63.78975 | 20.28691 | 27 ft | 113 kts | 318° |
| 2026-04-16 12:49 | 63.79397 | 20.27844 | 31 ft | 46 kts | 318° |
| 2026-04-16 12:49 | 63.79507 | 20.27852 | 28 ft | 14 kts | 50° |
| 2026-04-16 12:49 | 63.79516 | 20.27878 | 26 ft | 0 kts | 50° |
| 2026-04-16 12:50 | 63.79522 | 20.27894 | 28 ft | 3 kts | 51° |
| 2026-04-16 12:50 | 63.79567 | 20.28008 | 25 ft | 15 kts | 47° |
| 2026-04-16 12:50 | 63.79597 | 20.28152 | 25 ft | 16 kts | 98° |
| 2026-04-16 12:50 | 63.79516 | 20.28340 | 28 ft | 18 kts | 140° |
| 2026-04-16 12:51 | 63.79415 | 20.28518 | 29 ft | 19 kts | 151° |
| 2026-04-16 12:51 | 63.79350 | 20.28573 | 28 ft | 3 kts | 142° |
| 2026-04-16 12:51 | 63.79319 | 20.28630 | 28 ft | 10 kts | 140° |
| 2026-04-16 12:51 | 63.79317 | 20.28677 | 29 ft | 2 kts | 46° |
| 2026-04-16 12:52 | 63.79332 | 20.28716 | 29 ft | 5 kts | 47° |
| 2026-04-16 12:52 | 63.79339 | 20.28734 | 28 ft | 0 kts | 49° |